Nearby METAR Reports

 

KBED - Bedford, Massachusetts, USA
Distance from station: W 5mi, 9km
Updated: Sun, 24-Jun-2018 2:03pm EDT
Mostly cloudy
Mostly cloudy
 Wind from SW
Wind: SW 5 mph , 7 km/h
Temperature: 77°F , 25°C
Dew Point: 64°F , 18°C
Humidity: 65%
Barometer: 1008.1 hPa
Clouds: Mostly cloudy
Visibility: 10 miles , 16 km
Cloud details: Mostly cloudy 3200 ft
2018/06/24 18:03 KBED 241803Z 22004KT 10SM BKN032 25/18 A2977 RMK AO2 T02500183
KBOS - Boston, Massachusetts, USA
Distance from station: SE 11mi, 18km
Updated: Sun, 24-Jun-2018 1:54pm EDT
Mostly cloudy
Mostly cloudy
 Wind from ESE
Wind: ESE 12 mph , 19 km/h
Temperature: 72°F , 22°C
Dew Point: 61°F , 16°C
Humidity: 69%
Barometer: 1008.8 hPa
Clouds: Mostly cloudy
Visibility: 10 miles , 16 km
Cloud details: Partly cloudy 2600 ft
Mostly cloudy 25000 ft
2018/06/24 17:54 KBOS 241754Z 11010KT 10SM SCT026 BKN250 22/16 A2979 RMK AO2 SLP087 T02220161 10250 20167 58014
 
KBVY - Beverly, Massachusetts, USA
Distance from station: ENE 17mi, 27km
Updated: Sun, 24-Jun-2018 2:08pm EDT
Mostly cloudy
Mostly cloudy
 Wind from ESE
Wind: ESE 8 mph , 13 km/h
Temperature: 73°F , 23°C
Dew Point: 64°F , 18°C
Humidity: 74%
Barometer: 1008.5 hPa
Clouds: Mostly cloudy
Visibility: 10 miles , 16 km
Cloud details: Mostly cloudy 2400 ft
2018/06/24 18:08 KBVY 241808Z 12007KT 10SM BKN024 23/18 A2978 RMK AO2 T02330178
KMQE - East Milton, Massachusetts, USA
Distance from station: SSE 17mi, 28km
Updated: Sun, 24-Jun-2018 1:56pm EDT

 Wind from calm
Wind: Calm
Temperature: 75°F , 24°C
Dew Point: 64°F , 18°C
Humidity: 69%
Barometer: 1009.1 hPa
2018/06/24 17:56 KMQE 241756Z AUTO 00000KT 24/18 A2980 RMK AO1 SLP099 T02390178 10250 20144 58012
 
KLWM - Lawrence, Massachusetts, USA
Distance from station: N 18mi, 29km
Updated: Sun, 24-Jun-2018 1:54pm EDT
Overcast
Overcast
 Wind from calm
Wind: Calm
Temperature: 79°F , 26°C
Dew Point: 64°F , 18°C
Humidity: 61%
Barometer: 1009.1 hPa
Clouds: Overcast
Visibility: 10 miles , 16 km
Cloud details: Overcast 3100 ft
2018/06/24 17:54 KLWM 241754Z 00000KT 10SM OVC031 26/18 A2980 RMK AO2 SLP090 T02560178 10256 20167 58018
KOWD - Norwood, Massachusetts, USA
Distance from station: S 19mi, 31km
Updated: Sun, 24-Jun-2018 1:53pm EDT
Overcast
Overcast
 Wind from SSW
Wind: SSW 5 mph , 7 km/h
Temperature: 81°F , 27°C
Heat Index: 83°F , 28°C
Dew Point: 64°F , 18°C
Humidity: 58%
Barometer: 1008.5 hPa
Clouds: Overcast
Visibility: 10 miles , 16 km
Cloud details: Mostly cloudy 2500 ft
Overcast 5500 ft
2018/06/24 17:53 KOWD 241753Z 21004KT 10SM BKN025 OVC055 27/18 A2978 RMK AO2 SLP084 T02670183 10272 20172 58017
 
KASH - Nashua/Boire Fld, New Hampshire, USA
Distance from station: NW 28mi, 45km
Updated: Sun, 24-Jun-2018 1:56pm EDT
Mostly cloudy
Mostly cloudy
 Wind from calm
Wind: Calm
Temperature: 79°F , 26°C
Dew Point: 64°F , 18°C
Humidity: 61%
Barometer: 1008.5 hPa
Clouds: Mostly cloudy
Visibility: 10 miles , 16 km
Cloud details: Partly cloudy 3100 ft
Mostly cloudy 4100 ft
Mostly cloudy 6500 ft
2018/06/24 17:56 KASH 241756Z 00000KT 10SM SCT031 BKN041 BKN065 26/18 A2978 RMK AO2 SLP091 T02560183 10267 20156 58018
KFIT - Fitchburg, Massachusetts, USA
Distance from station: WNW 29mi, 47km
Updated: Sun, 24-Jun-2018 1:52pm EDT
Mostly cloudy
Mostly cloudy
 Wind from varies
Wind: varies 5 mph , 7 km/h
Temperature: 79°F , 26°C
Dew Point: 64°F , 18°C
Humidity: 61%
Barometer: 1008.8 hPa
Clouds: Mostly cloudy
Visibility: 10 miles , 16 km
Cloud details: Partly cloudy 3500 ft
Mostly cloudy 4300 ft
Mostly cloudy 5500 ft
2018/06/24 17:52 KFIT 241752Z AUTO VRB04KT 10SM SCT035 BKN043 BKN055 26/18 A2979 RMK AO2 SLP086 T02610183 10261 20161 58015
 
KMHT - Manchester, New Hampshire, USA
Distance from station: NNW 35mi, 56km
Updated: Sun, 24-Jun-2018 1:53pm EDT
Mostly cloudy
Mostly cloudy
 Wind from NE
Wind: NE 3 mph , 6 km/h
Temperature: 72°F , 22°C
Dew Point: 64°F , 18°C
Humidity: 78%
Barometer: 1008.1 hPa
Clouds: Mostly cloudy
Visibility: 10 miles , 16 km
Cloud details: Mostly cloudy 2500 ft
Mostly cloudy 4500 ft
Mostly cloudy 25000 ft
2018/06/24 17:53 KMHT 241753Z 05003KT 10SM BKN025 BKN045 BKN250 22/18 A2977 RMK AO2 SLP090 T02170178 10244 20156 58013
KGHG - Marshfield, Massachusetts, USA
Distance from station: SE 37mi, 59km
Updated: Sun, 24-Jun-2018 1:55pm EDT
Partly cloudy
Partly cloudy
 Wind from varies
Wind: varies 6 mph , 9 km/h, Gust: 12 mph , 19 km/h
Temperature: 79°F , 26°C
Dew Point: 66°F , 19°C
Humidity: 65%
Barometer: 1008.8 hPa
Clouds: Partly cloudy
Visibility: 10 miles , 16 km
Cloud details: Few Clouds 2400 ft
Partly cloudy 3000 ft
Partly cloudy 7500 ft
2018/06/24 17:55 KGHG 241755Z AUTO VRB05G10KT 10SM FEW024 SCT030 SCT075 26/19 A2979 RMK AO2
 
KORH - Worcester, Massachusetts, USA
Distance from station: WSW 37mi, 59km
Updated: Sun, 24-Jun-2018 1:54pm EDT
Mostly cloudy
Mostly cloudy
 Wind from SSW
Wind: SSW 8 mph , 13 km/h
Temperature: 73°F , 23°C
Dew Point: 64°F , 18°C
Humidity: 74%
Barometer: 1009.8 hPa
Clouds: Mostly cloudy
Visibility: 10 miles , 16 km
Cloud details: Mostly cloudy 1900 ft
2018/06/24 17:54 KORH 241754Z 21007KT 10SM BKN019 23/18 A2982 RMK AO2 SLP095 T02280178 10233 20150 58012
KSFZ - Pawtucket, Rhode Island, USA
Distance from station: SSW 41mi, 65km
Updated: Sun, 24-Jun-2018 2:05pm EDT
Overcast
Overcast
 Wind from varies
Wind: varies 6 mph , 9 km/h
Temperature: 75°F , 24°C
Dew Point: 64°F , 18°C
Humidity: 69%
Barometer: 1009.8 hPa
Clouds: Overcast
Visibility: 10 miles , 16 km
Cloud details: Partly cloudy 2200 ft
Overcast 7500 ft
2018/06/24 18:05 KSFZ 241805Z AUTO VRB05KT 10SM SCT022 OVC075 24/18 A2982 RMK AO2
 
KTAN - Taunton, Massachusetts, USA
Distance from station: SSE 41mi, 66km
Updated: Sun, 24-Jun-2018 1:52pm EDT
Mostly cloudy
Mostly cloudy
 Wind from SSW
Wind: SSW 10 mph , 17 km/h
Temperature: 81°F , 27°C
Heat Index: 83°F , 28°C
Dew Point: 66°F , 19°C
Humidity: 62%
Barometer: 1009.1 hPa
Clouds: Mostly cloudy
Visibility: 10 miles , 16 km
Cloud details: Partly cloudy 2600 ft
Mostly cloudy 8000 ft
2018/06/24 17:52 KTAN 241752Z AUTO 21009KT 190V250 10SM SCT026 BKN080 27/19 A2980 RMK AO2 SLP090 T02670189 10267 20172 58014
KPYM - Plymouth, Massachusetts, USA
Distance from station: SSE 44mi, 71km
Updated: Sun, 24-Jun-2018 1:52pm EDT
Few Clouds
Few Clouds
 Wind from SSW
Wind: SSW 9 mph , 15 km/h, Gust: 16 mph , 26 km/h
Temperature: 79°F , 26°C
Dew Point: 64°F , 18°C
Humidity: 61%
Barometer: 1009.5 hPa
Clouds: Few Clouds
Visibility: 10 miles , 16 km
Cloud details: Few Clouds 2300 ft
2018/06/24 17:52 KPYM 241752Z AUTO 20008G14KT 10SM FEW023 26/18 A2981 RMK AO2 SLP093 T02560183 10261 20161 58013
 
KPSM - Portsmouth/Pease, New Hampshire, USA
Distance from station: NNE 46mi, 74km
Updated: Sun, 24-Jun-2018 1:56pm EDT
Overcast
Overcast
 Wind from calm
Wind: Calm
Temperature: 75°F , 24°C
Dew Point: 61°F , 16°C
Humidity: 61%
Barometer: 1008.1 hPa
Clouds: Overcast
Visibility: 10 miles , 16 km
Cloud details: Mostly cloudy 2600 ft
Overcast 3600 ft
2018/06/24 17:56 KPSM 241756Z 00000KT 10SM BKN026 OVC036 24/16 A2977 RMK AO2A SLP083 T02350163 10235 20151 57010
KAFN - Jaffrey, New Hampshire, USA
Distance from station: WNW 47mi, 76km
Updated: Sun, 24-Jun-2018 1:52pm EDT
Mostly cloudy
Mostly cloudy
 Wind from NW
Wind: NW 7 mph , 11 km/h
Temperature: 77°F , 25°C
Dew Point: 63°F , 17°C
Humidity: 61%
Barometer: 1009.5 hPa
Clouds: Mostly cloudy
Visibility: 10 miles , 16 km
Cloud details: Few Clouds 2900 ft
Partly cloudy 4000 ft
Mostly cloudy 5000 ft
2018/06/24 17:52 KAFN 241752Z AUTO 31006KT 10SM FEW029 SCT040 BKN050 25/17 A2981 RMK AO2 SLP094 T02500172 10261 20144 58011